Time,TemperatureF,DewpointF,PressureIn,WindDirection,WindDirectionDegrees,WindSpeedMPH,WindSpeedGustMPH,Humidity,HourlyPrecipIn,Conditions,Clouds,dailyrainin,SoftwareType,DateUTC
2013-01-29 00:05:00,67.8,61.4,30.18,North,357,0.0,0.0,80,0.00,,---,0.00,VWS V14.01,2013-01-29 05:05:00,
2013-01-29 00:10:00,67.8,61.4,30.18,North,10,0.0,2.2,80,0.00,,---,0.00,VWS V14.01,2013-01-29 05:10:00,
2013-01-29 00:15:00,67.6,61.3,30.18,NNE,26,0.0,2.2,80,0.00,,---,0.00,VWS V14.01,2013-01-29 05:15:00,
2013-01-29 00:20:00,67.6,61.6,30.18,North,10,0.0,3.6,81,0.00,,---,0.00,VWS V14.01,2013-01-29 05:20:00,
2013-01-29 00:25:00,67.6,61.6,30.18,NE,43,3.1,3.1,81,0.00,,---,0.00,VWS V14.01,2013-01-29 05:25:00,
2013-01-29 00:30:00,67.6,62.0,30.18,North,357,0.0,0.0,82,0.00,,---,0.00,VWS V14.01,2013-01-29 05:30:00,
2013-01-29 00:35:00,67.6,62.3,30.18,NE,37,0.0,0.0,83,0.00,,---,0.00,VWS V14.01,2013-01-29 05:35:00,
2013-01-29 00:40:00,67.6,62.3,30.18,NNE,21,0.0,0.0,83,0.00,,---,0.00,VWS V14.01,2013-01-29 05:40:00,
2013-01-29 00:45:00,67.6,62.3,30.18,North,10,2.2,3.6,83,0.00,,---,0.00,VWS V14.01,2013-01-29 05:45:00,
2013-01-29 00:50:00,67.6,62.6,30.18,ENE,61,0.0,0.0,84,0.00,,---,0.00,VWS V14.01,2013-01-29 05:50:00,
2013-01-29 00:55:00,67.6,62.6,30.18,NNE,29,0.0,0.0,84,0.00,,---,0.00,VWS V14.01,2013-01-29 05:55:00,
2013-01-29 01:00:00,67.6,62.3,30.18,North,357,0.0,3.6,83,0.00,,---,0.00,VWS V14.01,2013-01-29 06:00:00,
2013-01-29 01:05:00,67.6,62.6,30.18,East,88,0.0,0.0,84,0.00,,---,0.00,VWS V14.01,2013-01-29 06:05:00,
2013-01-29 01:10:00,67.6,62.6,30.18,North,1,0.0,2.2,84,0.00,,---,0.00,VWS V14.01,2013-01-29 06:10:00,
2013-01-29 01:15:00,67.5,62.5,30.18,NNE,26,0.0,2.2,84,0.00,,---,0.00,VWS V14.01,2013-01-29 06:15:00,
2013-01-29 01:20:00,67.5,62.5,30.18,East,87,0.0,0.0,84,0.00,,---,0.00,VWS V14.01,2013-01-29 06:20:00,
2013-01-29 01:25:00,67.5,62.5,30.18,NE,50,0.0,0.0,84,0.00,,---,0.00,VWS V14.01,2013-01-29 06:25:00,
2013-01-29 01:30:00,67.5,62.5,30.18,ENE,74,2.2,2.7,84,0.00,,---,0.00,VWS V14.01,2013-01-29 06:30:00,
2013-01-29 01:35:00,67.5,62.5,30.18,East,79,2.2,2.2,84,0.00,,---,0.00,VWS V14.01,2013-01-29 06:35:00,
2013-01-29 01:40:00,67.5,62.8,30.18,North,357,0.0,0.0,85,0.00,,---,0.00,VWS V14.01,2013-01-29 06:40:00,
2013-01-29 01:45:00,67.5,62.8,30.18,ESE,116,0.0,0.0,85,0.00,,---,0.00,VWS V14.01,2013-01-29 06:45:00,
2013-01-29 01:50:00,67.6,63.0,30.18,ESE,115,0.0,0.0,85,0.00,,---,0.00,VWS V14.01,2013-01-29 06:50:00,
2013-01-29 01:55:00,67.6,63.0,30.18,East,93,0.0,0.0,85,0.00,,---,0.00,VWS V14.01,2013-01-29 06:55:00,
2013-01-29 02:00:00,67.6,63.0,30.18,NNE,17,0.0,0.0,85,0.00,,---,0.00,VWS V14.01,2013-01-29 07:00:00,
2013-01-29 02:05:00,67.6,63.0,30.18,North,6,0.0,0.0,85,0.00,,---,0.00,VWS V14.01,2013-01-29 07:05:00,
2013-01-29 02:10:00,67.6,63.0,30.15,NNE,32,0.0,0.0,85,0.00,,---,0.00,VWS V14.01,2013-01-29 07:10:00,
2013-01-29 02:15:00,67.5,62.5,30.15,ENE,71,0.0,0.0,84,0.00,,---,0.00,VWS V14.01,2013-01-29 07:15:00,
2013-01-29 02:20:00,67.3,62.3,30.15,ENE,71,0.0,0.0,84,0.00,,---,0.00,VWS V14.01,2013-01-29 07:20:00,
2013-01-29 02:25:00,67.1,62.1,30.15,ENE,71,0.0,0.0,84,0.00,,---,0.00,VWS V14.01,2013-01-29 07:25:00,
2013-01-29 02:30:00,67.1,62.5,30.15,ENE,71,0.0,0.0,85,0.00,,---,0.00,VWS V14.01,2013-01-29 07:30:00,
2013-01-29 02:35:00,67.1,62.5,30.15,ENE,71,0.0,0.0,85,0.00,,---,0.00,VWS V14.01,2013-01-29 07:35:00,
2013-01-29 02:40:00,66.9,62.3,30.15,ENE,71,0.0,0.0,85,0.00,,---,0.00,VWS V14.01,2013-01-29 07:40:00,
2013-01-29 02:45:00,66.7,62.1,30.15,ENE,71,0.0,0.0,85,0.00,,---,0.00,VWS V14.01,2013-01-29 07:45:00,
2013-01-29 02:50:00,66.6,61.9,30.15,ENE,71,0.0,0.0,85,0.00,,---,0.00,VWS V14.01,2013-01-29 07:50:00,
2013-01-29 02:55:00,66.6,61.9,30.15,ENE,71,0.0,0.0,85,0.00,,---,0.00,VWS V14.01,2013-01-29 07:55:00,
2013-01-29 03:00:00,66.2,61.2,30.15,ENE,71,0.0,0.0,84,0.00,,---,0.00,VWS V14.01,2013-01-29 08:00:00,
2013-01-29 03:05:00,65.8,61.2,30.15,ENE,71,0.0,0.0,85,0.00,,---,0.00,VWS V14.01,2013-01-29 08:05:00,
2013-01-29 03:10:00,65.8,61.5,30.15,ENE,71,0.0,0.0,86,0.00,,---,0.00,VWS V14.01,2013-01-29 08:10:00,
2013-01-29 03:15:00,65.8,61.9,30.15,ENE,61,0.0,0.0,87,0.00,,---,0.00,VWS V14.01,2013-01-29 08:15:00,
2013-01-29 03:20:00,66.0,62.4,30.15,ENE,61,0.0,0.0,88,0.00,,---,0.00,VWS V14.01,2013-01-29 08:20:00,
2013-01-29 03:25:00,66.0,62.4,30.18,ENE,62,0.0,0.0,88,0.00,,---,0.00,VWS V14.01,2013-01-29 08:25:00,
2013-01-29 03:30:00,66.0,62.7,30.18,ENE,62,0.0,0.0,89,0.00,,---,0.00,VWS V14.01,2013-01-29 08:30:00,
2013-01-29 03:35:00,66.0,62.7,30.18,ENE,61,0.0,0.0,89,0.00,,---,0.00,VWS V14.01,2013-01-29 08:35:00,
2013-01-29 03:40:00,66.0,62.7,30.18,ENE,62,0.0,0.0,89,0.00,,---,0.00,VWS V14.01,2013-01-29 08:40:00,
2013-01-29 03:45:00,66.0,63.0,30.18,ENE,61,0.0,0.0,90,0.00,,---,0.00,VWS V14.01,2013-01-29 08:45:00,
2013-01-29 03:50:00,65.8,62.8,30.18,ENE,61,0.0,0.0,90,0.00,,---,0.00,VWS V14.01,2013-01-29 08:50:00,
2013-01-29 03:55:00,65.8,62.8,30.15,ENE,61,0.0,0.0,90,0.00,,---,0.00,VWS V14.01,2013-01-29 08:55:00,
2013-01-29 04:00:00,65.7,62.3,30.15,ENE,62,0.0,0.0,89,0.00,,---,0.00,VWS V14.01,2013-01-29 09:00:00,
2013-01-29 04:05:00,65.7,62.7,30.15,ENE,61,0.0,0.0,90,0.00,,---,0.00,VWS V14.01,2013-01-29 09:05:00,
2013-01-29 04:10:00,65.5,62.2,30.15,ENE,61,0.0,0.0,89,0.00,,---,0.00,VWS V14.01,2013-01-29 09:10:00,
2013-01-29 04:15:00,65.3,62.0,30.15,ENE,62,0.0,0.0,89,0.00,,---,0.00,VWS V14.01,2013-01-29 09:15:00,
2013-01-29 04:20:00,65.1,61.8,30.15,ENE,61,0.0,0.0,89,0.00,,---,0.00,VWS V14.01,2013-01-29 09:20:00,
2013-01-29 04:25:00,64.9,61.6,30.15,ENE,61,0.0,0.0,89,0.00,,---,0.00,VWS V14.01,2013-01-29 09:25:00,
2013-01-29 04:30:00,64.8,61.5,30.15,ENE,61,0.0,0.0,89,0.00,,---,0.00,VWS V14.01,2013-01-29 09:30:00,
2013-01-29 04:35:00,64.6,61.6,30.15,ENE,61,0.0,0.0,90,0.00,,---,0.00,VWS V14.01,2013-01-29 09:35:00,
2013-01-29 04:40:00,64.8,62.1,30.15,ENE,62,0.0,0.0,91,0.00,,---,0.00,VWS V14.01,2013-01-29 09:40:00,
2013-01-29 04:45:00,64.8,62.1,30.15,ENE,61,0.0,0.0,91,0.00,,---,0.00,VWS V14.01,2013-01-29 09:45:00,
2013-01-29 04:50:00,64.9,62.6,30.15,ENE,61,0.0,0.0,92,0.00,,---,0.00,VWS V14.01,2013-01-29 09:50:00,
2013-01-29 04:55:00,64.9,62.6,30.15,ENE,61,0.0,0.0,92,0.00,,---,0.00,VWS V14.01,2013-01-29 09:55:00,
2013-01-29 05:00:00,65.1,62.7,30.15,ENE,62,0.0,0.0,92,0.00,,---,0.00,VWS V14.01,2013-01-29 10:00:00,
2013-01-29 05:05:00,65.1,62.7,30.15,ENE,61,0.0,0.0,92,0.00,,---,0.00,VWS V14.01,2013-01-29 10:05:00,
2013-01-29 05:10:00,64.8,62.1,30.15,ENE,62,0.0,0.0,91,0.00,,---,0.00,VWS V14.01,2013-01-29 10:10:00,
2013-01-29 05:15:00,64.8,62.4,30.15,ENE,62,0.0,0.0,92,0.00,,---,0.00,VWS V14.01,2013-01-29 10:15:00,
2013-01-29 05:20:00,64.8,62.7,30.15,ENE,61,0.0,0.0,93,0.00,,---,0.00,VWS V14.01,2013-01-29 10:20:00,
2013-01-29 05:24:00,64.8,63.0,30.15,ENE,61,0.0,0.0,94,0.00,,---,0.00,VWS V14.01,2013-01-29 10:24:00,
2013-01-29 05:29:00,64.8,63.6,30.15,North,357,0.0,0.0,96,0.00,,---,0.00,VWS V14.01,2013-01-29 10:29:00,
2013-01-29 05:34:00,64.8,64.8,30.15,North,357,0.0,2.2,100,0.00,,---,0.00,VWS V14.01,2013-01-29 10:34:00,
2013-01-29 05:39:00,64.8,64.8,30.18,North,357,0.0,0.0,100,0.00,,---,0.00,VWS V14.01,2013-01-29 10:39:00,
2013-01-29 05:44:00,64.8,64.8,30.18,North,357,0.0,0.0,100,0.00,,---,0.00,VWS V14.01,2013-01-29 10:44:00,
2013-01-29 05:49:00,64.8,64.8,30.18,North,0,0.0,0.0,100,0.00,,---,0.00,VWS V14.01,2013-01-29 10:49:00,
2013-01-29 05:54:00,64.8,64.8,30.18,ENE,60,0.0,0.0,100,0.00,,---,0.00,VWS V14.01,2013-01-29 10:54:00,
2013-01-29 05:59:00,64.8,64.8,30.18,ENE,60,2.2,2.2,100,0.00,,---,0.00,VWS V14.01,2013-01-29 10:59:00,
2013-01-29 06:04:00,64.8,64.8,30.18,North,357,0.0,0.0,100,0.00,,---,0.00,VWS V14.01,2013-01-29 11:04:00,
2013-01-29 06:09:00,64.8,64.8,30.18,NE,45,0.0,0.0,100,0.00,,---,0.00,VWS V14.01,2013-01-29 11:09:00,
2013-01-29 06:14:00,64.8,64.8,30.18,North,1,0.0,0.0,100,0.00,,---,0.00,VWS V14.01,2013-01-29 11:14:00,
2013-01-29 06:19:00,64.8,64.8,30.18,North,1,0.0,2.2,100,0.00,,---,0.00,VWS V14.01,2013-01-29 11:19:00,
2013-01-29 06:24:00,64.8,64.8,30.18,NNE,22,0.0,0.0,100,0.00,,---,0.00,VWS V14.01,2013-01-29 11:24:00,
2013-01-29 06:29:00,64.8,64.8,30.18,NNE,25,0.0,0.0,100,0.00,,---,0.00,VWS V14.01,2013-01-29 11:29:00,
2013-01-29 06:34:00,64.9,64.9,30.18,ENE,59,2.7,2.7,100,0.00,,---,0.00,VWS V14.01,2013-01-29 11:34:00,
2013-01-29 06:39:00,64.9,64.9,30.18,NE,51,0.0,0.0,100,0.00,,---,0.00,VWS V14.01,2013-01-29 11:39:00,
2013-01-29 06:44:00,64.9,64.9,30.18,NE,45,0.0,0.0,100,0.00,,---,0.00,VWS V14.01,2013-01-29 11:44:00,
2013-01-29 06:49:00,65.1,65.1,30.18,NE,46,0.0,0.0,100,0.00,,---,0.00,VWS V14.01,2013-01-29 11:49:00,
2013-01-29 06:54:00,65.1,65.1,30.18,NE,46,0.0,0.0,100,0.00,,---,0.00,VWS V14.01,2013-01-29 11:54:00,
2013-01-29 06:59:00,65.3,65.3,30.18,NNE,17,0.0,0.0,100,0.00,,---,0.00,VWS V14.01,2013-01-29 11:59:00,
2013-01-29 07:04:00,65.3,65.3,30.18,NNE,17,0.0,0.0,100,0.00,,---,0.00,VWS V14.01,2013-01-29 12:04:00,
2013-01-29 07:09:00,65.5,65.5,30.18,North,353,0.0,2.2,100,0.00,,---,0.00,VWS V14.01,2013-01-29 12:09:00,
2013-01-29 07:14:00,65.5,65.5,30.18,ENE,62,2.2,2.2,100,0.00,,---,0.00,VWS V14.01,2013-01-29 12:14:00,
2013-01-29 07:19:00,65.7,65.7,30.18,East,86,0.0,0.0,100,0.00,,---,0.00,VWS V14.01,2013-01-29 12:19:00,
2013-01-29 07:24:00,65.8,65.8,30.18,NE,48,0.0,2.7,100,0.00,,---,0.00,VWS V14.01,2013-01-29 12:24:00,
2013-01-29 07:29:00,66.0,66.0,30.18,NE,54,4.0,4.0,100,0.00,,---,0.00,VWS V14.01,2013-01-29 12:29:00,
2013-01-29 07:34:00,66.2,66.2,30.18,NE,37,0.0,3.6,100,0.00,,---,0.00,VWS V14.01,2013-01-29 12:34:00,
2013-01-29 07:39:00,66.2,66.2,30.18,East,89,0.0,3.6,100,0.00,,---,0.00,VWS V14.01,2013-01-29 12:39:00,
2013-01-29 07:44:00,66.4,66.4,30.18,NE,48,0.0,0.0,100,0.00,,---,0.00,VWS V14.01,2013-01-29 12:44:00,
2013-01-29 07:49:00,66.6,66.6,30.18,ENE,77,4.9,5.8,100,0.00,,---,0.00,VWS V14.01,2013-01-29 12:49:00,
2013-01-29 07:54:00,66.7,66.7,30.18,NE,55,2.7,3.1,100,0.00,,---,0.00,VWS V14.01,2013-01-29 12:54:00,
2013-01-29 07:59:00,67.1,67.1,30.18,North,1,2.2,3.6,100,0.00,,---,0.00,VWS V14.01,2013-01-29 12:59:00,
2013-01-29 08:04:00,67.3,67.3,30.18,North,1,0.0,3.1,100,0.00,,---,0.00,VWS V14.01,2013-01-29 13:04:00,
2013-01-29 08:09:00,67.5,67.5,30.18,North,353,4.0,4.0,100,0.00,,---,0.00,VWS V14.01,2013-01-29 13:09:00,
2013-01-29 08:14:00,67.5,67.5,30.18,North,5,0.0,0.0,100,0.00,,---,0.00,VWS V14.01,2013-01-29 13:14:00,
2013-01-29 08:19:00,67.6,67.6,30.18,East,96,5.8,5.8,100,0.00,,---,0.00,VWS V14.01,2013-01-29 13:19:00,
2013-01-29 08:24:00,67.8,67.8,30.18,NNE,29,0.0,0.0,100,0.00,,---,0.00,VWS V14.01,2013-01-29 13:24:00,
2013-01-29 08:29:00,68.0,68.0,30.18,North,357,2.7,2.7,100,0.00,,---,0.00,VWS V14.01,2013-01-29 13:29:00,
2013-01-29 08:32:00,68.0,68.0,30.18,North,357,0.0,0.0,100,0.00,,---,0.00,VWS V14.01,2013-01-29 13:32:00,
2013-01-29 08:34:00,68.0,68.0,30.18,North,357,0.0,0.0,100,0.00,,---,0.00,VWS V14.01,2013-01-29 13:34:00,
2013-01-29 08:39:00,68.0,68.0,30.18,North,357,0.0,0.0,100,0.00,,---,0.00,VWS V14.01,2013-01-29 13:39:00,
2013-01-29 08:49:00,68.0,68.0,30.18,North,357,0.0,0.0,100,0.00,,---,0.00,VWS V14.01,2013-01-29 13:49:00,
2013-01-29 08:54:00,68.0,68.0,30.18,North,357,0.0,0.0,100,0.00,,---,0.00,VWS V14.01,2013-01-29 13:54:00,
2013-01-29 09:04:00,68.0,68.0,30.18,North,357,0.0,0.0,100,0.00,,---,0.00,VWS V14.01,2013-01-29 14:04:00,
2013-01-29 09:09:00,68.0,68.0,30.18,North,357,0.0,0.0,100,0.00,,---,0.00,VWS V14.01,2013-01-29 14:09:00,
2013-01-29 09:16:00,68.0,68.0,30.18,North,357,0.0,0.0,100,0.00,,---,0.00,VWS V14.01,2013-01-29 14:16:00,
2013-01-29 09:21:00,68.0,68.0,30.18,North,357,0.0,0.0,100,0.00,,---,0.00,VWS V14.01,2013-01-29 14:21:00,
2013-01-29 09:28:00,68.0,68.0,30.18,North,357,0.0,0.0,100,0.00,,---,0.00,VWS V14.01,2013-01-29 14:28:00,
2013-01-29 09:33:00,68.0,68.0,30.18,North,357,0.0,0.0,100,0.00,,---,0.00,VWS V14.01,2013-01-29 14:33:00,
2013-01-29 09:38:00,68.0,68.0,30.18,North,357,0.0,0.0,100,0.00,,---,0.00,VWS V14.01,2013-01-29 14:38:00,
2013-01-29 09:43:00,68.0,68.0,30.18,North,357,0.0,0.0,100,0.00,,---,0.00,VWS V14.01,2013-01-29 14:43:00,
2013-01-29 09:50:00,68.0,68.0,30.18,North,357,0.0,0.0,100,0.00,,---,0.00,VWS V14.01,2013-01-29 14:50:00,
2013-01-29 09:55:00,68.0,68.0,30.18,North,357,0.0,0.0,100,0.00,,---,0.00,VWS V14.01,2013-01-29 14:55:00,
2013-01-29 10:00:00,68.0,68.0,30.18,North,357,0.0,0.0,100,0.00,,---,0.00,VWS V14.01,2013-01-29 15:00:00,
2013-01-29 10:05:00,68.0,68.0,30.18,North,357,0.0,0.0,100,0.00,,---,0.00,VWS V14.01,2013-01-29 15:05:00,
2013-01-29 10:10:00,68.0,68.0,30.18,North,357,0.0,0.0,100,0.00,,---,0.00,VWS V14.01,2013-01-29 15:10:00,
2013-01-29 10:16:00,68.0,68.0,30.18,North,357,0.0,0.0,100,0.00,,---,0.00,VWS V14.01,2013-01-29 15:16:00,
2013-01-29 10:25:00,68.0,68.0,30.18,North,357,0.0,0.0,100,0.00,,---,0.00,VWS V14.01,2013-01-29 15:25:00,
2013-01-29 10:34:00,68.0,68.0,30.18,North,357,0.0,0.0,100,0.00,,---,0.00,VWS V14.01,2013-01-29 15:34:00,
2013-01-29 10:41:00,68.0,68.0,30.18,North,357,0.0,0.0,100,0.00,,---,0.00,VWS V14.01,2013-01-29 15:41:00,
2013-01-29 10:50:00,68.0,68.0,30.18,North,357,0.0,0.0,100,0.00,,---,0.00,VWS V14.01,2013-01-29 15:50:00,
2013-01-29 10:56:00,68.0,68.0,30.18,North,357,0.0,0.0,100,0.00,,---,0.00,VWS V14.01,2013-01-29 15:56:00,
2013-01-29 11:01:00,68.0,68.0,30.18,North,357,0.0,0.0,100,0.00,,---,0.00,VWS V14.01,2013-01-29 16:01:00,
2013-01-29 11:07:00,68.0,68.0,30.18,North,357,0.0,0.0,100,0.00,,---,0.00,VWS V14.01,2013-01-29 16:07:00,
2013-01-29 11:19:00,68.0,68.0,30.18,North,357,0.0,0.0,100,0.00,,---,0.00,VWS V14.01,2013-01-29 16:19:00,
2013-01-29 11:25:00,68.0,68.0,30.18,North,357,0.0,0.0,100,0.00,,---,0.00,VWS V14.01,2013-01-29 16:25:00,
2013-01-29 11:30:00,68.0,68.0,30.18,North,357,0.0,0.0,100,0.00,,---,0.00,VWS V14.01,2013-01-29 16:30:00,
2013-01-29 11:36:00,68.0,68.0,30.18,North,357,0.0,0.0,100,0.00,,---,0.00,VWS V14.01,2013-01-29 16:36:00,
2013-01-29 11:44:00,68.0,68.0,30.18,North,357,0.0,0.0,100,0.00,,---,0.00,VWS V14.01,2013-01-29 16:44:00,
2013-01-29 11:51:00,68.0,68.0,30.18,North,357,0.0,0.0,100,0.00,,---,0.00,VWS V14.01,2013-01-29 16:51:00,
2013-01-29 11:56:00,68.0,68.0,30.18,North,357,0.0,0.0,100,0.00,,---,0.00,VWS V14.01,2013-01-29 16:56:00,
2013-01-29 12:01:00,68.0,68.0,30.18,North,357,0.0,0.0,100,0.00,,---,0.00,VWS V14.01,2013-01-29 17:01:00,
2013-01-29 12:07:00,68.0,68.0,30.18,North,357,0.0,0.0,100,0.00,,---,0.00,VWS V14.01,2013-01-29 17:07:00,
2013-01-29 12:18:00,68.0,68.0,30.18,North,357,0.0,0.0,100,0.00,,---,0.00,VWS V14.01,2013-01-29 17:18:00,
2013-01-29 12:23:00,68.0,68.0,30.18,North,357,0.0,0.0,100,0.00,,---,0.00,VWS V14.01,2013-01-29 17:23:00,
2013-01-29 12:29:00,68.0,68.0,30.18,North,357,0.0,0.0,100,0.00,,---,0.00,VWS V14.01,2013-01-29 17:29:00,
2013-01-29 12:40:00,68.0,68.0,30.18,North,357,0.0,0.0,100,0.00,,---,0.00,VWS V14.01,2013-01-29 17:40:00,
2013-01-29 12:46:00,68.0,68.0,30.18,North,357,0.0,0.0,100,0.00,,---,0.00,VWS V14.01,2013-01-29 17:46:00,
2013-01-29 12:52:00,68.0,68.0,30.18,North,357,0.0,0.0,100,0.00,,---,0.00,VWS V14.01,2013-01-29 17:52:00,
2013-01-29 12:57:00,68.0,68.0,30.18,North,357,0.0,0.0,100,0.00,,---,0.00,VWS V14.01,2013-01-29 17:57:00,
2013-01-29 13:07:00,68.0,68.0,30.18,North,357,0.0,0.0,100,0.00,,---,0.00,VWS V14.01,2013-01-29 18:07:00,
2013-01-29 13:12:00,68.0,68.0,30.18,North,357,0.0,0.0,100,0.00,,---,0.00,VWS V14.01,2013-01-29 18:12:00,
2013-01-29 13:18:00,68.0,68.0,30.18,North,357,0.0,0.0,100,0.00,,---,0.00,VWS V14.01,2013-01-29 18:18:00,
2013-01-29 13:23:00,68.0,68.0,30.18,North,357,0.0,0.0,100,0.00,,---,0.00,VWS V14.01,2013-01-29 18:23:00,
2013-01-29 13:29:00,68.0,68.0,30.18,North,357,0.0,0.0,100,0.00,,---,0.00,VWS V14.01,2013-01-29 18:29:00,
2013-01-29 13:34:00,68.0,68.0,30.18,North,357,0.0,0.0,100,0.00,,---,0.00,VWS V14.01,2013-01-29 18:34:00,
2013-01-29 13:39:00,68.0,68.0,30.18,North,357,0.0,0.0,100,0.00,,---,0.00,VWS V14.01,2013-01-29 18:39:00,
2013-01-29 13:45:00,68.0,68.0,30.18,North,357,0.0,0.0,100,0.00,,---,0.00,VWS V14.01,2013-01-29 18:45:00,
2013-01-29 13:52:00,68.0,68.0,30.18,North,357,0.0,0.0,100,0.00,,---,0.00,VWS V14.01,2013-01-29 18:52:00,
2013-01-29 13:57:00,68.0,68.0,30.18,North,357,0.0,0.0,100,0.00,,---,0.00,VWS V14.01,2013-01-29 18:57:00,
2013-01-29 14:05:00,68.0,68.0,30.18,North,357,0.0,0.0,100,0.00,,---,0.00,VWS V14.01,2013-01-29 19:05:00,
2013-01-29 14:10:00,68.0,68.0,30.18,North,357,0.0,0.0,100,0.00,,---,0.00,VWS V14.01,2013-01-29 19:10:00,
2013-01-29 14:15:00,68.0,68.0,30.18,North,357,0.0,0.0,100,0.00,,---,0.00,VWS V14.01,2013-01-29 19:15:00,
2013-01-29 14:23:00,68.0,68.0,30.18,North,357,0.0,0.0,100,0.00,,---,0.00,VWS V14.01,2013-01-29 19:23:00,
2013-01-29 14:28:00,68.0,68.0,30.18,North,357,0.0,0.0,100,0.00,,---,0.00,VWS V14.01,2013-01-29 19:28:00,
2013-01-29 14:34:00,68.0,68.0,30.18,North,357,0.0,0.0,100,0.00,,---,0.00,VWS V14.01,2013-01-29 19:34:00,
2013-01-29 14:39:00,68.0,68.0,30.18,North,357,0.0,0.0,100,0.00,,---,0.00,VWS V14.01,2013-01-29 19:39:00,
2013-01-29 14:45:00,68.0,68.0,30.18,North,357,0.0,0.0,100,0.00,,---,0.00,VWS V14.01,2013-01-29 19:45:00,
2013-01-29 14:51:00,68.0,68.0,30.18,North,357,0.0,0.0,100,0.00,,---,0.00,VWS V14.01,2013-01-29 19:51:00,
2013-01-29 15:05:00,68.0,68.0,30.18,North,357,0.0,0.0,100,0.00,,---,0.00,VWS V14.01,2013-01-29 20:05:00,
2013-01-29 15:23:00,68.0,68.0,30.18,North,357,0.0,0.0,100,0.00,,---,0.00,VWS V14.01,2013-01-29 20:23:00,
2013-01-29 15:29:00,68.0,68.0,30.18,North,357,0.0,0.0,100,0.00,,---,0.00,VWS V14.01,2013-01-29 20:29:00,
2013-01-29 15:37:00,68.0,68.0,30.18,North,357,0.0,0.0,100,0.00,,---,0.00,VWS V14.01,2013-01-29 20:37:00,
2013-01-29 15:43:00,68.0,68.0,30.18,North,357,0.0,0.0,100,0.00,,---,0.00,VWS V14.01,2013-01-29 20:43:00,
2013-01-29 15:53:00,68.0,68.0,30.18,North,357,0.0,0.0,100,0.00,,---,0.00,VWS V14.01,2013-01-29 20:53:00,
2013-01-29 16:03:00,68.0,68.0,30.18,North,357,0.0,0.0,100,0.00,,---,0.00,VWS V14.01,2013-01-29 21:03:00,
2013-01-29 16:10:00,68.0,68.0,30.18,North,357,0.0,0.0,100,0.00,,---,0.00,VWS V14.01,2013-01-29 21:10:00,
2013-01-29 16:20:00,68.0,68.0,30.18,North,357,0.0,0.0,100,0.00,,---,0.00,VWS V14.01,2013-01-29 21:20:00,
2013-01-29 16:30:00,68.0,68.0,30.18,North,357,0.0,0.0,100,0.00,,---,0.00,VWS V14.01,2013-01-29 21:30:00,
2013-01-29 16:35:00,68.0,68.0,30.18,North,357,0.0,0.0,100,0.00,,---,0.00,VWS V14.01,2013-01-29 21:35:00,
2013-01-29 16:40:00,68.0,68.0,30.18,North,357,0.0,0.0,100,0.00,,---,0.00,VWS V14.01,2013-01-29 21:40:00,
2013-01-29 16:45:00,68.0,68.0,30.18,North,357,0.0,0.0,100,0.00,,---,0.00,VWS V14.01,2013-01-29 21:45:00,
2013-01-29 16:54:00,68.0,68.0,30.18,North,357,0.0,0.0,100,0.00,,---,0.00,VWS V14.01,2013-01-29 21:54:00,
2013-01-29 17:04:00,68.0,68.0,30.18,North,357,0.0,0.0,100,0.00,,---,0.00,VWS V14.01,2013-01-29 22:04:00,
2013-01-29 17:09:00,68.0,68.0,30.18,North,357,0.0,0.0,100,0.00,,---,0.00,VWS V14.01,2013-01-29 22:09:00,
2013-01-29 17:15:00,68.0,68.0,30.18,North,357,0.0,0.0,100,0.00,,---,0.00,VWS V14.01,2013-01-29 22:15:00,
2013-01-29 17:21:00,68.0,68.0,30.18,North,357,0.0,0.0,100,0.00,,---,0.00,VWS V14.01,2013-01-29 22:21:00,
2013-01-29 17:28:00,68.0,68.0,30.18,North,357,0.0,0.0,100,0.00,,---,0.00,VWS V14.01,2013-01-29 22:28:00,
2013-01-29 17:34:00,68.0,68.0,30.18,North,357,0.0,0.0,100,0.00,,---,0.00,VWS V14.01,2013-01-29 22:34:00,
2013-01-29 17:39:00,68.0,68.0,30.18,North,357,0.0,0.0,100,0.00,,---,0.00,VWS V14.01,2013-01-29 22:39:00,
2013-01-29 17:44:00,68.0,68.0,30.18,North,357,0.0,0.0,100,0.00,,---,0.00,VWS V14.01,2013-01-29 22:44:00,
2013-01-29 17:50:00,68.0,68.0,30.18,North,357,0.0,0.0,100,0.00,,---,0.00,VWS V14.01,2013-01-29 22:50:00,
2013-01-29 17:55:00,68.0,68.0,30.18,North,357,0.0,0.0,100,0.00,,---,0.00,VWS V14.01,2013-01-29 22:55:00,
2013-01-29 18:08:00,68.0,68.0,30.18,North,357,0.0,0.0,100,0.00,,---,0.00,VWS V14.01,2013-01-29 23:08:00,
2013-01-29 18:18:00,68.0,68.0,30.18,North,357,0.0,0.0,100,0.00,,---,0.00,VWS V14.01,2013-01-29 23:18:00,
2013-01-29 18:26:00,68.0,68.0,30.18,North,357,0.0,0.0,100,0.00,,---,0.00,VWS V14.01,2013-01-29 23:26:00,